Observations for GLASGOW AIRPORT, United Kingdom (EGPF)

EGPF 260450Z AUTO 21007KT 7000 BKN005 OVC011 15/14 Q1017
EGPF 260420Z AUTO 21007KT 6000 OVC004 15/14 Q1017   
EGPF 260350Z AUTO 22006KT 5000 BR OVC004 15/14 Q1018
EGPF 260320Z AUTO 21008KT 4600 BR OVC004 15/14 Q1018
EGPF 260250Z AUTO 21003KT 5000 BR OVC005 15/14 Q1018
EGPF 260220Z AUTO 23007KT 5000 BR OVC005 15/14 Q1018
EGPF 260150Z AUTO 23008KT 8000 OVC005 15/14 Q1017   
EGPF 260120Z AUTO 21009KT 7000 OVC005 15/14 Q1017   
EGPF 260050Z AUTO 20010KT 5000 BR OVC004 15/14 Q1018
EGPF 260020Z AUTO 21009KT 4700 BR OVC004 15/14 Q1018
EGPF 252350Z AUTO 21007KT 6000 OVC003 15/14 Q1018   
EGPF 252320Z AUTO 22008KT 4500 BR OVC003 15/14 Q1018
EGPF 252250Z AUTO 22010KT 3500 BR OVC003 15/14 Q1018
EGPF 252220Z 22006KT 3300 BR BKN004 14/14 Q1018 
EGPF 252150Z AUTO 23008KT 7000 NCD 15/14 Q1018  
EGPF 252120Z AUTO 22007KT 9999 NCD 15/13 Q1017  
EGPF 252050Z AUTO 22005KT 9999 NCD 16/14 Q1018  
EGPF 252020Z AUTO 25003KT 9999 NCD 17/14 Q1018  
EGPF 251950Z AUTO 24005KT 9999 NCD 17/14 Q1017  
EGPF 251920Z AUTO 23007KT 9999 NCD 19/14 Q1017  
EGPF 251850Z AUTO 22008KT 9999 NCD 20/15 Q1017  
EGPF 251820Z AUTO 23007KT 9999 NCD 21/16 Q1016  
EGPF 251750Z AUTO 22011KT 9999 NCD 23/16 Q1016  
EGPF 251720Z AUTO 23009KT 9999 NCD 24/16 Q1016  
EGPF 251650Z AUTO 21010KT 9999 NCD 26/15 Q1016  
EGPF 251620Z AUTO 21010KT 9999 NCD 27/15 Q1016  
EGPF 251550Z AUTO 21009KT 9999 NCD 27/15 Q1016  
EGPF 251520Z AUTO 18009KT 9999 NCD 28/15 Q1016  
EGPF 251450Z AUTO 17008KT 140V200 9999 NCD 28/15 Q1016  
EGPF 251420Z AUTO VRB04KT 9999 NCD 28/16 Q1016  
EGPF 251350Z AUTO 04007KT 360V080 9999 NCD 26/18 Q1016  
EGPF 251320Z AUTO 07007KT 9999 NCD 26/18 Q1017  
EGPF 251250Z AUTO 05007KT 020V110 9999 NCD 25/18 Q1017  
EGPF 251220Z AUTO 05008KT 9999 NCD 25/18 Q1017  
EGPF 251150Z AUTO 04007KT 9999 NCD 24/18 Q1017  
EGPF 251120Z AUTO 06006KT 030V090 9999 NCD 23/17 Q1017  
EGPF 251050Z AUTO 06006KT 030V090 9999 NCD 22/16 Q1017  
EGPF 251020Z AUTO 06006KT 030V100 9999 NCD 21/15 Q1018  
EGPF 250950Z AUTO 04005KT 9999 NCD 20/15 Q1018  
EGPF 250920Z AUTO 09009KT 9999 NCD 20/15 Q1018  
EGPF 250850Z AUTO 07004KT 9999 NCD 19/15 Q1018  
EGPF 250820Z AUTO 07006KT 040V110 9999 NCD 17/15 Q1018  
EGPF 250750Z AUTO VRB02KT 9999 NCD 16/14 Q1019  
EGPF 250720Z AUTO VRB02KT 9999 NCD 15/14 Q1018  
EGPF 250650Z AUTO VRB01KT 9999 NCD 13/13 Q1018  
EGPF 250620Z AUTO VRB01KT 9000 NCD 12/12 Q1018  
EGPF 250550Z AUTO VRB01KT 7000 NCD 11/10 Q1018  
EGPF 250520Z AUTO VRB02KT 6000 NCD 10/10 Q1018  
EGPF 250450Z AUTO 18001KT 9999 NCD 11/10 Q1018  
EGPF 250420Z AUTO 30002KT 9000 NCD 11/11 Q1018